Terminal Aerodrome Forecast
Issued by NWS

Home | Current Version | Previous Version | Graphics & Text | Print | Product List | Glossary On
Versions: 1 2 3 4 5 6 7 8 9 10 11 12 13 14 15 16 17 18 19
000
FTUS43 KGRB 211339 AAA
TAFAUW
TAF AMD
KAUW 211339Z 2114/2212 03004KT P6SM BKN018
     FM211500 08006KT P6SM BKN020
     FM212200 12005KT P6SM VCTS BKN020 BKN100CB
     FM220600 15005KT P6SM SCT030 BKN050
     FM220900 17005KT P6SM SCT050=

USA.gov is the U.S. government's official web portal to all federal, state and local government web resources and services.